createdAt,value
2023-05-15T00:00:45.291Z,4.00
2023-05-15T00:01:46.010Z,4.00
2023-05-15T00:02:46.076Z,4.00
2023-05-15T00:03:44.791Z,4.00
2023-05-15T00:04:45.986Z,4.00
2023-05-15T00:05:45.929Z,4.00
2023-05-15T00:06:45.920Z,4.00
2023-05-15T00:07:45.908Z,0.00
2023-05-15T00:08:45.882Z,0.00
2023-05-15T00:09:45.870Z,4.00
2023-05-15T00:10:57.369Z,4.00
2023-05-15T00:11:46.844Z,0.00
2023-05-15T00:12:45.836Z,4.00
2023-05-15T00:13:45.824Z,0.00
2023-05-15T00:14:45.809Z,0.00
2023-05-15T00:15:45.803Z,4.00
2023-05-15T00:16:45.780Z,0.00
2023-05-15T00:17:45.812Z,0.00
2023-05-15T00:18:45.828Z,4.00
2023-05-15T00:19:45.725Z,4.00
2023-05-15T00:20:45.710Z,4.00
2023-05-15T00:21:45.716Z,4.00
2023-05-15T00:22:45.699Z,4.00
2023-05-15T00:23:45.677Z,4.00
2023-05-15T00:24:45.675Z,4.00
2023-05-15T00:25:45.646Z,4.00
2023-05-15T00:26:45.650Z,4.00
2023-05-15T00:27:44.165Z,4.00
2023-05-15T00:28:45.626Z,4.00
2023-05-15T00:29:45.582Z,4.00
2023-05-15T00:30:45.611Z,4.00
2023-05-15T00:31:45.633Z,4.00
2023-05-15T00:32:45.620Z,4.00
2023-05-15T00:33:45.538Z,4.00
2023-05-15T00:34:45.529Z,4.00
2023-05-15T00:35:44.299Z,4.00
2023-05-15T00:36:45.511Z,4.00
2023-05-15T00:37:45.492Z,4.00
2023-05-15T00:38:45.473Z,4.00
2023-05-15T00:39:45.460Z,4.00
2023-05-15T00:40:44.014Z,4.00
2023-05-15T00:41:45.448Z,4.00
2023-05-15T00:42:45.414Z,4.00
2023-05-15T00:43:43.953Z,4.00
2023-05-15T00:44:45.395Z,4.00
2023-05-15T00:45:45.382Z,4.00
2023-05-15T00:46:45.392Z,4.00
2023-05-15T00:47:45.371Z,4.00
2023-05-15T00:48:44.068Z,4.00
2023-05-15T00:49:43.976Z,4.00
2023-05-15T00:50:45.313Z,4.00
2023-05-15T00:51:45.314Z,4.00
2023-05-15T00:52:45.290Z,4.00
2023-05-15T00:53:44.013Z,4.00
2023-05-15T00:54:45.268Z,4.00
2023-05-15T00:55:45.277Z,4.00
2023-05-15T00:56:45.236Z,4.00
2023-05-15T00:57:45.224Z,4.00
2023-05-15T00:58:45.204Z,4.00
2023-05-15T00:59:45.202Z,4.00
2023-05-15T01:00:45.270Z,4.00
2023-05-15T01:01:45.179Z,4.00
2023-05-15T01:02:45.205Z,4.00
2023-05-15T01:03:45.144Z,4.00
2023-05-15T01:04:45.145Z,4.00
2023-05-15T01:05:45.129Z,4.00
2023-05-15T01:06:45.123Z,4.00
2023-05-15T01:07:43.884Z,4.00
2023-05-15T01:08:45.080Z,4.00
2023-05-15T01:09:45.098Z,4.00
2023-05-15T01:10:45.044Z,4.00
2023-05-15T01:11:45.027Z,4.00
2023-05-15T01:12:45.016Z,4.00
2023-05-15T01:13:45.043Z,4.00
2023-05-15T01:14:44.508Z,4.00
2023-05-15T01:15:44.954Z,4.00
2023-05-15T01:16:44.960Z,4.00
2023-05-15T01:17:44.999Z,4.00
2023-05-15T01:18:44.170Z,4.00
2023-05-15T01:19:45.070Z,4.00
2023-05-15T01:20:44.900Z,4.00
2023-05-15T01:21:44.896Z,4.00
2023-05-15T01:22:44.868Z,4.00
2023-05-15T01:23:44.870Z,4.00
2023-05-15T01:24:44.862Z,4.00
2023-05-15T01:25:44.827Z,4.00
2023-05-15T01:26:44.827Z,4.00
2023-05-15T01:27:44.827Z,4.00
2023-05-15T01:28:44.796Z,4.00
2023-05-15T01:29:44.788Z,4.00
2023-05-15T01:30:44.799Z,4.00
2023-05-15T01:31:44.767Z,4.00
2023-05-15T01:32:44.832Z,4.00
2023-05-15T01:33:44.754Z,4.00
2023-05-15T01:34:44.730Z,4.00
2023-05-15T01:35:44.690Z,4.00
2023-05-15T01:36:44.673Z,4.00
2023-05-15T01:37:44.668Z,4.00
2023-05-15T01:38:44.682Z,4.00
2023-05-15T01:39:44.644Z,4.00
2023-05-15T01:40:44.625Z,4.00
2023-05-15T01:41:44.609Z,4.00
2023-05-15T01:42:44.616Z,4.00
2023-05-15T01:43:44.579Z,4.00
2023-05-15T01:44:44.586Z,0.00
2023-05-15T01:45:44.558Z,4.00
2023-05-15T01:46:44.642Z,0.00
2023-05-15T01:47:44.597Z,0.00
2023-05-15T01:48:44.517Z,0.00
2023-05-15T01:49:44.504Z,0.00
2023-05-15T01:50:44.494Z,0.00
2023-05-15T01:51:44.505Z,0.00
2023-05-15T01:52:44.485Z,0.00
2023-05-15T01:53:44.293Z,0.00
2023-05-15T01:54:44.438Z,0.00
2023-05-15T01:55:44.429Z,0.00
2023-05-15T01:56:44.404Z,0.00
2023-05-15T01:57:44.401Z,0.00
2023-05-15T01:58:44.378Z,4.00
2023-05-15T01:59:44.384Z,4.00
2023-05-15T02:00:44.375Z,4.00
2023-05-15T02:01:44.419Z,4.00
2023-05-15T02:02:44.430Z,4.00
2023-05-15T02:03:43.489Z,0.00
2023-05-15T02:04:43.816Z,0.00
2023-05-15T02:05:44.297Z,0.00
2023-05-15T02:06:44.296Z,0.00
2023-05-15T02:07:44.256Z,0.00
2023-05-15T02:08:44.267Z,0.00
2023-05-15T02:09:44.247Z,0.00
2023-05-15T02:10:44.251Z,0.00
2023-05-15T02:11:44.206Z,0.00
2023-05-15T02:12:44.178Z,0.00
2023-05-15T02:13:44.174Z,0.00
2023-05-15T02:14:44.182Z,0.00
2023-05-15T02:15:44.149Z,0.00
2023-05-15T02:16:43.371Z,0.00
2023-05-15T02:17:44.151Z,0.00
2023-05-15T02:18:44.142Z,0.00
2023-05-15T02:19:44.115Z,0.00
2023-05-15T02:20:44.093Z,0.00
2023-05-15T02:21:44.097Z,0.00
2023-05-15T02:22:44.095Z,0.00
2023-05-15T02:23:44.077Z,0.00
2023-05-15T02:24:44.063Z,0.00
2023-05-15T02:25:44.065Z,0.00
2023-05-15T02:26:44.035Z,0.00
2023-05-15T02:27:44.026Z,0.00
2023-05-15T02:28:44.002Z,0.00
2023-05-15T02:29:44.005Z,0.00
2023-05-15T02:30:43.999Z,0.00
2023-05-15T02:31:42.539Z,0.00
2023-05-15T02:32:43.982Z,0.00
2023-05-15T02:33:43.942Z,0.00
2023-05-15T02:34:43.910Z,0.00
2023-05-15T02:35:43.894Z,0.00
2023-05-15T02:36:43.863Z,0.00
2023-05-15T02:37:43.932Z,0.00
2023-05-15T02:38:43.924Z,0.00
2023-05-15T02:39:43.827Z,0.00
2023-05-15T02:40:43.820Z,0.00
2023-05-15T02:41:43.805Z,0.00
2023-05-15T02:42:43.787Z,0.00
2023-05-15T02:43:43.786Z,0.00
2023-05-15T02:44:43.773Z,0.00
2023-05-15T02:45:43.762Z,0.00
2023-05-15T02:46:43.725Z,0.00
2023-05-15T02:47:43.753Z,4.00
2023-05-15T02:48:43.740Z,0.00
2023-05-15T02:49:43.712Z,0.00
2023-05-15T02:50:43.698Z,0.00
2023-05-15T02:51:43.712Z,0.00
2023-05-15T02:52:43.653Z,0.00
2023-05-15T02:53:43.653Z,0.00
2023-05-15T02:54:43.625Z,0.00
2023-05-15T02:55:43.610Z,0.00
2023-05-15T02:56:43.594Z,0.00
2023-05-15T02:57:43.581Z,0.00
2023-05-15T02:58:43.592Z,4.00
2023-05-15T02:59:43.569Z,4.00
2023-05-15T03:00:43.547Z,4.00
2023-05-15T03:01:43.582Z,4.00
2023-05-15T03:02:43.574Z,4.00
2023-05-15T03:03:43.498Z,4.00
2023-05-15T03:04:43.657Z,4.00
2023-05-15T03:05:43.486Z,4.00
2023-05-15T03:06:43.466Z,4.00
2023-05-15T03:07:43.469Z,4.00
2023-05-15T03:08:43.431Z,4.00
2023-05-15T03:09:43.439Z,4.00
2023-05-15T03:10:43.434Z,0.00
2023-05-15T03:11:43.394Z,0.00
2023-05-15T03:12:43.384Z,0.00
2023-05-15T03:13:43.405Z,4.00
2023-05-15T03:14:43.345Z,4.00
2023-05-15T03:15:43.349Z,4.00
2023-05-15T03:16:43.396Z,4.00
2023-05-15T03:17:43.465Z,8.00
2023-05-15T03:18:43.327Z,4.00
2023-05-15T03:19:43.294Z,8.00
2023-05-15T03:20:43.288Z,8.00
2023-05-15T03:21:43.264Z,8.00
2023-05-15T03:22:43.264Z,8.00
2023-05-15T03:23:43.240Z,12.00
2023-05-15T03:24:43.219Z,12.00
2023-05-15T03:25:43.205Z,16.00
2023-05-15T03:26:43.233Z,16.00
2023-05-15T03:27:43.167Z,16.00
2023-05-15T03:28:43.148Z,20.00
2023-05-15T03:29:43.169Z,24.00
2023-05-15T03:30:43.143Z,28.00
2023-05-15T03:31:42.707Z,32.00
2023-05-15T03:32:43.172Z,32.00
2023-05-15T03:33:43.102Z,40.00
2023-05-15T03:34:43.087Z,40.00
2023-05-15T03:35:43.093Z,48.00
2023-05-15T03:36:43.059Z,52.00
2023-05-15T03:37:42.121Z,60.00
2023-05-15T03:38:42.075Z,60.00
2023-05-15T03:39:43.030Z,68.00
2023-05-15T03:40:43.007Z,84.00
2023-05-15T03:41:42.987Z,92.00
2023-05-15T03:42:42.969Z,104.00
2023-05-15T03:43:42.966Z,116.00
2023-05-15T03:44:42.949Z,124.00
2023-05-15T03:45:42.931Z,136.00
2023-05-15T03:46:42.934Z,144.00
2023-05-15T03:47:43.025Z,160.00
2023-05-15T03:48:42.903Z,168.00
2023-05-15T03:49:42.896Z,188.00
2023-05-15T03:50:42.875Z,200.00
2023-05-15T03:51:42.844Z,216.00
2023-05-15T03:52:42.851Z,232.00
2023-05-15T03:53:42.818Z,252.00
2023-05-15T03:54:42.814Z,272.00
2023-05-15T03:55:42.832Z,292.00
2023-05-15T03:56:42.781Z,316.00
2023-05-15T03:57:42.762Z,336.00
2023-05-15T03:58:42.762Z,368.00
2023-05-15T03:59:42.746Z,396.00
2023-05-15T04:00:42.732Z,428.00
2023-05-15T04:01:59.468Z,472.00
2023-05-15T04:02:43.755Z,512.00
2023-05-15T04:03:42.721Z,560.00
2023-05-15T04:04:42.689Z,604.00
2023-05-15T04:05:42.706Z,656.00
2023-05-15T04:06:42.646Z,708.00
2023-05-15T04:07:42.621Z,764.00
2023-05-15T04:08:42.620Z,816.00
2023-05-15T04:09:42.617Z,876.00
2023-05-15T04:10:42.584Z,948.00
2023-05-15T04:11:42.599Z,1020.00
2023-05-15T04:12:42.557Z,1100.00
2023-05-15T04:13:42.567Z,1180.00
2023-05-15T04:14:42.544Z,1264.00
2023-05-15T04:15:42.519Z,1356.00
2023-05-15T04:16:42.646Z,1444.00
2023-05-15T04:17:42.533Z,1536.00
2023-05-15T04:18:42.528Z,1632.00
2023-05-15T04:19:43.127Z,1732.00
2023-05-15T04:20:42.449Z,1848.00
2023-05-15T04:21:42.453Z,1972.00
2023-05-15T04:22:42.432Z,2092.00
2023-05-15T04:23:42.435Z,2196.00
2023-05-15T04:24:41.431Z,2284.00
2023-05-15T04:25:41.424Z,2360.00
2023-05-15T04:26:42.461Z,2444.00
2023-05-15T04:27:42.374Z,2536.00
2023-05-15T04:28:52.492Z,2640.00
2023-05-15T04:29:43.337Z,2752.00
2023-05-15T04:30:42.318Z,2864.00
2023-05-15T04:31:42.332Z,2988.00
2023-05-15T04:32:42.355Z,3104.00
2023-05-15T04:33:42.283Z,3212.00
2023-05-15T04:34:42.256Z,3308.00
2023-05-15T04:35:42.279Z,3412.00
2023-05-15T04:36:42.956Z,3520.00
2023-05-15T04:37:42.232Z,3628.00
2023-05-15T04:38:42.217Z,3728.00
2023-05-15T04:39:42.184Z,3836.00
2023-05-15T04:40:42.162Z,3960.00
2023-05-15T04:41:42.174Z,4084.00
2023-05-15T04:42:42.153Z,4196.00
2023-05-15T04:43:42.138Z,4296.00
2023-05-15T04:44:42.124Z,4376.00
2023-05-15T04:45:42.138Z,4424.00
2023-05-15T04:46:42.110Z,4456.00
2023-05-15T04:47:42.169Z,4484.00
2023-05-15T04:48:42.069Z,4512.00
2023-05-15T04:49:41.563Z,4568.00
2023-05-15T04:50:42.028Z,4628.00
2023-05-15T04:51:42.045Z,4708.00
2023-05-15T04:52:42.030Z,4788.00
2023-05-15T04:53:41.998Z,4896.00
2023-05-15T04:54:41.976Z,5028.00
2023-05-15T04:55:41.971Z,5176.00
2023-05-15T04:56:41.966Z,5316.00
2023-05-15T04:57:41.959Z,5468.00
2023-05-15T04:58:41.929Z,5628.00
2023-05-15T04:59:41.954Z,5752.00
2023-05-15T05:00:41.907Z,5884.00
2023-05-15T05:01:42.008Z,6052.00
2023-05-15T05:02:41.948Z,6588.00
2023-05-15T05:03:41.897Z,6704.00
2023-05-15T05:04:41.834Z,6576.00
2023-05-15T05:05:41.853Z,6740.00
2023-05-15T05:06:41.832Z,6824.00
2023-05-15T05:07:41.838Z,6908.00
2023-05-15T05:08:41.798Z,7032.00
2023-05-15T05:09:41.781Z,7200.00
2023-05-15T05:10:41.811Z,7372.00
2023-05-15T05:11:41.769Z,7400.00
2023-05-15T05:12:41.736Z,8120.00
2023-05-15T05:13:41.733Z,9660.00
2023-05-15T05:14:41.723Z,9540.00
2023-05-15T05:15:41.766Z,8172.00
2023-05-15T05:16:41.680Z,9432.00
2023-05-15T05:17:41.742Z,9752.00
2023-05-15T05:18:41.684Z,9972.00
2023-05-15T05:19:41.675Z,9840.00
2023-05-15T05:20:41.650Z,9364.00
2023-05-15T05:21:41.655Z,9736.00
2023-05-15T05:22:41.607Z,9256.00
2023-05-15T05:23:41.603Z,9212.00
2023-05-15T05:24:41.634Z,9008.00
2023-05-15T05:25:41.554Z,7728.00
2023-05-15T05:26:41.549Z,8068.00
2023-05-15T05:27:41.528Z,8320.00
2023-05-15T05:28:41.524Z,8512.00
2023-05-15T05:29:41.505Z,8652.00
2023-05-15T05:30:41.489Z,8732.00
2023-05-15T05:31:41.570Z,8728.00
2023-05-15T05:32:41.554Z,8696.00
2023-05-15T05:33:41.461Z,8660.00
2023-05-15T05:34:41.445Z,8824.00
2023-05-15T05:35:41.427Z,8760.00
2023-05-15T05:36:40.191Z,8748.00
2023-05-15T05:37:41.672Z,8524.00
2023-05-15T05:38:41.396Z,8376.00
2023-05-15T05:39:41.399Z,8400.00
2023-05-15T05:40:41.357Z,8504.00
2023-05-15T05:41:41.348Z,8644.00
2023-05-15T05:42:41.318Z,8720.00
2023-05-15T05:43:41.325Z,8740.00
2023-05-15T05:44:41.308Z,8732.00
2023-05-15T05:45:41.280Z,8768.00
2023-05-15T05:46:41.315Z,8760.00
2023-05-15T05:47:41.302Z,8772.00
2023-05-15T05:48:41.253Z,8808.00
2023-05-15T05:49:41.227Z,8888.00
2023-05-15T05:50:41.226Z,9004.00
2023-05-15T05:51:41.215Z,9132.00
2023-05-15T05:52:41.199Z,9244.00
2023-05-15T05:53:41.182Z,9352.00
2023-05-15T05:54:41.167Z,9488.00
2023-05-15T05:55:41.146Z,9600.00
2023-05-15T05:56:41.125Z,9704.00
2023-05-15T05:57:41.126Z,9796.00
2023-05-15T05:58:41.117Z,9876.00
2023-05-15T05:59:41.089Z,9972.00
2023-05-15T06:00:41.079Z,10056.00
2023-05-15T06:01:41.103Z,10148.00
2023-05-15T06:02:41.245Z,10244.00
2023-05-15T06:03:41.085Z,10360.00
2023-05-15T06:04:41.027Z,10444.00
2023-05-15T06:05:41.018Z,10512.00
2023-05-15T06:06:40.994Z,10612.00
2023-05-15T06:07:41.005Z,10688.00
2023-05-15T06:08:40.952Z,10796.00
2023-05-15T06:09:40.963Z,10920.00
2023-05-15T06:10:40.932Z,11052.00
2023-05-15T06:11:40.943Z,11224.00
2023-05-15T06:12:40.930Z,11404.00
2023-05-15T06:13:40.919Z,11572.00
2023-05-15T06:14:40.876Z,11680.00
2023-05-15T06:15:40.870Z,11760.00
2023-05-15T06:16:40.886Z,12392.00
2023-05-15T06:17:40.886Z,18016.00
2023-05-15T06:18:40.877Z,25728.00
2023-05-15T06:19:40.821Z,29024.00
2023-05-15T06:20:40.804Z,31584.00
2023-05-15T06:21:40.794Z,30560.00
2023-05-15T06:22:40.774Z,32768.00
2023-05-15T06:23:40.751Z,34208.00
2023-05-15T06:24:40.731Z,35744.00
2023-05-15T06:25:40.913Z,35584.00
2023-05-15T06:26:40.729Z,43040.00
2023-05-15T06:27:40.798Z,41984.00
2023-05-15T06:28:40.689Z,38944.00
2023-05-15T06:29:40.675Z,34272.00
2023-05-15T06:30:40.721Z,39104.00
2023-05-15T06:31:40.680Z,40256.00
2023-05-15T06:32:40.645Z,38688.00
2023-05-15T06:33:40.615Z,41568.00
2023-05-15T06:34:40.600Z,42176.00
2023-05-15T06:35:40.610Z,41600.00
2023-05-15T06:36:40.585Z,42368.00
2023-05-15T06:37:40.575Z,41792.00
2023-05-15T06:38:40.579Z,42592.00
2023-05-15T06:39:40.549Z,38912.00
2023-05-15T06:40:40.551Z,41568.00
2023-05-15T06:41:40.534Z,37248.00
2023-05-15T06:42:40.524Z,43584.00
2023-05-15T06:43:40.498Z,44512.00
2023-05-15T06:44:40.495Z,45472.00
2023-05-15T06:45:40.475Z,41440.00
2023-05-15T06:46:40.470Z,46048.00
2023-05-15T06:47:40.526Z,45984.00
2023-05-15T06:48:40.500Z,48064.00
2023-05-15T06:49:40.428Z,33184.00
2023-05-15T06:50:40.407Z,27936.00
2023-05-15T06:51:40.378Z,23200.00
2023-05-15T06:52:40.369Z,22752.00
2023-05-15T06:53:40.346Z,22496.00
2023-05-15T06:54:40.349Z,23936.00
2023-05-15T06:55:40.344Z,26080.00
2023-05-15T06:56:40.304Z,41728.00
2023-05-15T06:57:40.296Z,52128.00
2023-05-15T06:58:40.335Z,52512.00
2023-05-15T06:59:40.300Z,47776.00
2023-05-15T07:00:40.253Z,49024.00
2023-05-15T07:01:40.316Z,54528.00
2023-05-15T07:02:40.301Z,56000.00
2023-05-15T07:03:40.238Z,57824.00
2023-05-15T07:04:40.269Z,56224.00
2023-05-15T07:05:40.195Z,57216.00
2023-05-15T07:06:40.186Z,58080.00
2023-05-15T07:07:40.182Z,60288.00
2023-05-15T07:08:40.153Z,56480.00
2023-05-15T07:09:40.147Z,61920.00
2023-05-15T07:10:40.122Z,31520.00
2023-05-15T07:11:40.120Z,38208.00
2023-05-15T07:12:40.103Z,29152.00
2023-05-15T07:13:40.094Z,26624.00
2023-05-15T07:14:40.074Z,27520.00
2023-05-15T07:15:40.155Z,27008.00
2023-05-15T07:16:40.094Z,26720.00
2023-05-15T07:17:40.087Z,29280.00
2023-05-15T07:18:40.157Z,40128.00
2023-05-15T07:19:40.019Z,29504.00
2023-05-15T07:20:40.057Z,27072.00
2023-05-15T07:21:39.970Z,27648.00
2023-05-15T07:22:51.944Z,67936.00
2023-05-15T07:23:40.954Z,69920.00
2023-05-15T07:24:40.694Z,69536.00
2023-05-15T07:25:40.019Z,39104.00
2023-05-15T07:26:50.362Z,47648.00
2023-05-15T07:27:40.894Z,68480.00
2023-05-15T07:28:39.893Z,69120.00
2023-05-15T07:29:39.888Z,65568.00
2023-05-15T07:30:39.934Z,63168.00
2023-05-15T07:31:39.892Z,58944.00
2023-05-15T07:32:39.872Z,59424.00
2023-05-15T07:33:39.836Z,58240.00
2023-05-15T07:34:39.821Z,54176.00
2023-05-15T07:35:39.793Z,62688.00
2023-05-15T07:36:39.793Z,64224.00
2023-05-15T07:37:39.765Z,55264.00
2023-05-15T07:38:39.764Z,62400.00
2023-05-15T07:39:39.884Z,70304.00
2023-05-15T07:40:39.745Z,63936.00
2023-05-15T07:41:39.749Z,64928.00
2023-05-15T07:42:39.749Z,72864.00
2023-05-15T07:43:39.714Z,77248.00
2023-05-15T07:44:39.670Z,61600.00
2023-05-15T07:45:39.751Z,73568.00
2023-05-15T07:46:39.702Z,77728.00
2023-05-15T07:47:39.644Z,55136.00
2023-05-15T07:48:39.613Z,28416.00
2023-05-15T07:49:39.606Z,28064.00
2023-05-15T07:50:39.587Z,54432.00
2023-05-15T07:51:39.576Z,63584.00
2023-05-15T07:52:39.581Z,66752.00
2023-05-15T07:53:39.566Z,78656.00
2023-05-15T07:54:39.580Z,74656.00
2023-05-15T07:55:39.532Z,72832.00
2023-05-15T07:56:39.535Z,73696.00
2023-05-15T07:57:39.540Z,73408.00
2023-05-15T07:58:38.329Z,68896.00
2023-05-15T07:59:39.468Z,76128.00
2023-05-15T08:00:39.459Z,75488.00
2023-05-15T08:01:39.464Z,76928.00
2023-05-15T08:02:39.491Z,73568.00
2023-05-15T08:03:39.655Z,77920.00
2023-05-15T08:04:39.532Z,75808.00
2023-05-15T08:05:39.394Z,71264.00
2023-05-15T08:06:39.391Z,68512.00
2023-05-15T08:07:39.399Z,71328.00
2023-05-15T08:08:39.355Z,38496.00
2023-05-15T08:09:39.358Z,73344.00
2023-05-15T08:10:39.342Z,74848.00
2023-05-15T08:11:39.335Z,75616.00
2023-05-15T08:12:39.312Z,74016.00
2023-05-15T08:13:39.292Z,75456.00
2023-05-15T08:14:37.982Z,79552.00
2023-05-15T08:15:39.311Z,78080.00
2023-05-15T08:16:39.268Z,75552.00
2023-05-15T08:17:39.266Z,77696.00
2023-05-15T08:18:38.320Z,78496.00
2023-05-15T08:19:39.247Z,77312.00
2023-05-15T08:20:39.228Z,76736.00
2023-05-15T08:21:39.197Z,79328.00
2023-05-15T08:22:39.190Z,79168.00
2023-05-15T08:23:39.166Z,76256.00
2023-05-15T08:24:39.168Z,77824.00
2023-05-15T08:25:39.160Z,82400.00
2023-05-15T08:26:39.135Z,79936.00
2023-05-15T08:27:39.123Z,73952.00
2023-05-15T08:28:39.124Z,72352.00
2023-05-15T08:29:39.486Z,77696.00
2023-05-15T08:30:39.073Z,80992.00
2023-05-15T08:31:39.118Z,81120.00
2023-05-15T08:32:39.131Z,80928.00
2023-05-15T08:33:39.044Z,81856.00
2023-05-15T08:34:39.139Z,82880.00
2023-05-15T08:35:39.051Z,84288.00
2023-05-15T08:36:39.679Z,85952.00
2023-05-15T08:37:38.996Z,85280.00
2023-05-15T08:38:38.967Z,80864.00
2023-05-15T08:39:38.984Z,82624.00
2023-05-15T08:40:40.142Z,86688.00
2023-05-15T08:41:40.851Z,84128.00
2023-05-15T08:42:38.936Z,74432.00
2023-05-15T08:43:38.931Z,69984.00
2023-05-15T08:44:38.935Z,77120.00
2023-05-15T08:45:38.885Z,82592.00
2023-05-15T08:46:38.907Z,77728.00
2023-05-15T08:47:38.923Z,72416.00
2023-05-15T08:48:39.018Z,71104.00
2023-05-15T08:49:38.843Z,71808.00
2023-05-15T08:50:38.835Z,74016.00
2023-05-15T08:51:38.816Z,75040.00
2023-05-15T08:52:38.808Z,74752.00
2023-05-15T08:53:38.817Z,77376.00
2023-05-15T08:54:38.788Z,77472.00
2023-05-15T08:55:38.773Z,79072.00
2023-05-15T08:56:38.758Z,81728.00
2023-05-15T08:57:38.739Z,84352.00
2023-05-15T08:58:38.744Z,82880.00
2023-05-15T08:59:38.748Z,28288.00
2023-05-15T09:00:38.702Z,29344.00
2023-05-15T09:01:38.785Z,87488.00
2023-05-15T09:02:38.766Z,92256.00
2023-05-15T09:03:38.856Z,93952.00
2023-05-15T09:04:38.656Z,87200.00
2023-05-15T09:05:40.083Z,81952.00
2023-05-15T09:06:38.646Z,86880.00
2023-05-15T09:07:38.635Z,94688.00
2023-05-15T09:08:37.678Z,98368.00
2023-05-15T09:09:38.605Z,65184.00
2023-05-15T09:10:38.570Z,85952.00
2023-05-15T09:11:38.557Z,34560.00
2023-05-15T09:12:38.556Z,30496.00
2023-05-15T09:13:38.526Z,28736.00
2023-05-15T09:14:38.534Z,26560.00
2023-05-15T09:15:38.504Z,29312.00
2023-05-15T09:16:38.591Z,25344.00
2023-05-15T09:17:38.498Z,27872.00
2023-05-15T09:18:38.513Z,28896.00
2023-05-15T09:19:38.461Z,28800.00
2023-05-15T09:20:38.486Z,27008.00
2023-05-15T09:21:38.446Z,26336.00
2023-05-15T09:22:38.435Z,26016.00
2023-05-15T09:23:38.406Z,24192.00
2023-05-15T09:24:38.394Z,21472.00
2023-05-15T09:25:38.421Z,19232.00
2023-05-15T09:26:38.382Z,16992.00
2023-05-15T09:27:38.349Z,15060.00
2023-05-15T09:28:38.333Z,14012.00
2023-05-15T09:29:38.327Z,13420.00
2023-05-15T09:30:38.312Z,12968.00
2023-05-15T09:31:38.395Z,12632.00
2023-05-15T09:32:38.314Z,12108.00
2023-05-15T09:33:38.283Z,11684.00
2023-05-15T09:34:38.256Z,11404.00
2023-05-15T09:35:38.253Z,11224.00
2023-05-15T09:36:38.248Z,11124.00
2023-05-15T09:37:38.213Z,11168.00
2023-05-15T09:38:38.232Z,11540.00
2023-05-15T09:39:38.197Z,11948.00
2023-05-15T09:40:38.238Z,12352.00
2023-05-15T09:41:38.172Z,13084.00
2023-05-15T09:42:38.161Z,14196.00
2023-05-15T09:43:38.133Z,15492.00
2023-05-15T09:44:38.129Z,17120.00
2023-05-15T09:45:38.127Z,19040.00
2023-05-15T09:46:38.149Z,20608.00
2023-05-15T09:47:38.234Z,22208.00
2023-05-15T09:48:38.175Z,24640.00
2023-05-15T09:49:38.061Z,27552.00
2023-05-15T09:50:38.058Z,30272.00
2023-05-15T09:51:38.040Z,32352.00
2023-05-15T09:52:38.012Z,32832.00
2023-05-15T09:53:38.003Z,33024.00
2023-05-15T09:54:37.983Z,33792.00
2023-05-15T09:55:37.978Z,34720.00
2023-05-15T09:56:37.966Z,111904.00
2023-05-15T09:57:37.993Z,67008.00
2023-05-15T09:58:37.929Z,108544.00
2023-05-15T09:59:37.913Z,103552.00
2023-05-15T10:00:48.174Z,31424.00
2023-05-15T10:01:38.922Z,34464.00
2023-05-15T10:02:37.921Z,47456.00
2023-05-15T10:03:37.859Z,28192.00
2023-05-15T10:04:37.868Z,15280.00
2023-05-15T10:05:43.541Z,11408.00
2023-05-15T10:06:40.647Z,8840.00
2023-05-15T10:07:37.828Z,7484.00
2023-05-15T10:08:37.804Z,7012.00
2023-05-15T10:09:37.789Z,7548.00
2023-05-15T10:10:37.780Z,8044.00
2023-05-15T10:11:37.768Z,7936.00
2023-05-15T10:12:37.967Z,7792.00
2023-05-15T10:13:37.741Z,7728.00
2023-05-15T10:14:37.745Z,7912.00
2023-05-15T10:15:37.720Z,8100.00
2023-05-15T10:16:37.767Z,8340.00
2023-05-15T10:17:36.526Z,8412.00
2023-05-15T10:18:37.721Z,8908.00
2023-05-15T10:19:47.033Z,9280.00
2023-05-15T10:20:38.627Z,9640.00
2023-05-15T10:21:37.607Z,10100.00
2023-05-15T10:22:37.603Z,10548.00
2023-05-15T10:23:37.655Z,10968.00
2023-05-15T10:24:37.588Z,11216.00
2023-05-15T10:25:37.555Z,11508.00
2023-05-15T10:26:37.548Z,11896.00
2023-05-15T10:27:37.549Z,12396.00
2023-05-15T10:28:37.550Z,12760.00
2023-05-15T10:29:37.513Z,13176.00
2023-05-15T10:30:37.505Z,13796.00
2023-05-15T10:31:37.497Z,14324.00
2023-05-15T10:32:37.566Z,14744.00
2023-05-15T10:33:37.468Z,15164.00
2023-05-15T10:34:36.597Z,15456.00
2023-05-15T10:35:37.430Z,15608.00
2023-05-15T10:36:37.970Z,15808.00
2023-05-15T10:37:37.419Z,16200.00
2023-05-15T10:38:36.196Z,16516.00
2023-05-15T10:39:36.399Z,16864.00
2023-05-15T10:40:37.400Z,17696.00
2023-05-15T10:41:37.363Z,17152.00
2023-05-15T10:42:37.367Z,16012.00
2023-05-15T10:43:37.332Z,15108.00
2023-05-15T10:44:35.915Z,14068.00
2023-05-15T10:45:37.325Z,13192.00
2023-05-15T10:46:37.343Z,12728.00
2023-05-15T10:47:37.323Z,12692.00
2023-05-15T10:48:37.267Z,12860.00
2023-05-15T10:49:37.269Z,13180.00
2023-05-15T10:50:36.718Z,13624.00
2023-05-15T10:51:37.224Z,14264.00
2023-05-15T10:52:37.239Z,14976.00
2023-05-15T10:53:37.196Z,15664.00
2023-05-15T10:54:37.165Z,16244.00
2023-05-15T10:55:37.158Z,17024.00
2023-05-15T10:56:37.184Z,17472.00
2023-05-15T10:57:37.137Z,17856.00
2023-05-15T10:58:37.116Z,18240.00
2023-05-15T10:59:37.105Z,18528.00
2023-05-15T11:00:37.082Z,19072.00
2023-05-15T11:01:37.173Z,19680.00
2023-05-15T11:02:37.093Z,20288.00
2023-05-15T11:03:47.905Z,20800.00
2023-05-15T11:04:38.086Z,21248.00
2023-05-15T11:05:37.014Z,21824.00
2023-05-15T11:06:37.021Z,22144.00
2023-05-15T11:07:37.002Z,22368.00
2023-05-15T11:08:36.993Z,22528.00
2023-05-15T11:09:36.963Z,22752.00
2023-05-15T11:10:36.972Z,23264.00
2023-05-15T11:11:36.966Z,24160.00
2023-05-15T11:12:36.928Z,25408.00
2023-05-15T11:13:36.919Z,26912.00
2023-05-15T11:14:36.896Z,28608.00
2023-05-15T11:15:36.906Z,30624.00
2023-05-15T11:16:36.916Z,32160.00
2023-05-15T11:17:36.914Z,33248.00
2023-05-15T11:18:36.874Z,33696.00
2023-05-15T11:19:36.836Z,33440.00
2023-05-15T11:20:37.281Z,32832.00
2023-05-15T11:21:36.788Z,32832.00
2023-05-15T11:22:36.778Z,33184.00
2023-05-15T11:23:36.780Z,33344.00
2023-05-15T11:24:36.771Z,33568.00
2023-05-15T11:25:36.760Z,33888.00
2023-05-15T11:26:35.794Z,34304.00
2023-05-15T11:27:36.717Z,34528.00
2023-05-15T11:28:36.236Z,34368.00
2023-05-15T11:29:36.689Z,34336.00
2023-05-15T11:30:36.688Z,34496.00
2023-05-15T11:31:36.703Z,34912.00
2023-05-15T11:32:36.688Z,35872.00
2023-05-15T11:33:36.638Z,37184.00
2023-05-15T11:34:36.641Z,38304.00
2023-05-15T11:35:35.732Z,39424.00
2023-05-15T11:36:37.708Z,39744.00
2023-05-15T11:37:36.570Z,39744.00
2023-05-15T11:38:36.562Z,40384.00
2023-05-15T11:39:36.562Z,40640.00
2023-05-15T11:40:36.530Z,40256.00
2023-05-15T11:41:36.524Z,39936.00
2023-05-15T11:42:36.521Z,40064.00
2023-05-15T11:43:36.547Z,40704.00
2023-05-15T11:44:36.501Z,41376.00
2023-05-15T11:45:36.480Z,41408.00
2023-05-15T11:46:36.534Z,39872.00
2023-05-15T11:47:36.469Z,37760.00
2023-05-15T11:48:36.441Z,36160.00
2023-05-15T11:49:36.414Z,35936.00
2023-05-15T11:50:36.410Z,36832.00
2023-05-15T11:51:36.389Z,38208.00
2023-05-15T11:52:36.365Z,39552.00
2023-05-15T11:53:36.366Z,40448.00
2023-05-15T11:54:36.350Z,41248.00
2023-05-15T11:55:36.342Z,41888.00
2023-05-15T11:56:34.997Z,42272.00
2023-05-15T11:57:36.327Z,41536.00
2023-05-15T11:58:36.314Z,40608.00
2023-05-15T11:59:36.270Z,40544.00
2023-05-15T12:00:36.260Z,40928.00
2023-05-15T12:01:36.246Z,41952.00
2023-05-15T12:02:36.315Z,43968.00
2023-05-15T12:03:36.557Z,48640.00
2023-05-15T12:04:36.234Z,52096.00
2023-05-15T12:05:36.428Z,51648.00
2023-05-15T12:06:36.191Z,51232.00
2023-05-15T12:07:36.177Z,50336.00
2023-05-15T12:08:36.156Z,48704.00
2023-05-15T12:09:36.140Z,47488.00
2023-05-15T12:10:36.127Z,47104.00
2023-05-15T12:11:36.122Z,46848.00
2023-05-15T12:12:36.109Z,45984.00
2023-05-15T12:13:36.097Z,44512.00
2023-05-15T12:14:36.076Z,43584.00
2023-05-15T12:15:36.066Z,43584.00